createdAt,value
2023-04-25T00:02:23.411Z,22.92
2023-04-25T00:05:08.819Z,22.02
2023-04-25T00:07:54.298Z,22.42
2023-04-25T00:10:39.145Z,17.38
2023-04-25T00:13:24.384Z,27.58
2023-04-25T00:16:09.477Z,24.23
2023-04-25T00:18:54.905Z,22.70
2023-04-25T00:21:41.548Z,14.70
2023-04-25T00:24:27.075Z,22.25
2023-04-25T00:27:12.200Z,19.92
2023-04-25T00:29:57.149Z,20.88
2023-04-25T00:32:42.568Z,12.48
2023-04-25T00:35:27.694Z,23.55
2023-04-25T00:38:12.979Z,26.00
2023-04-25T00:40:58.735Z,22.23
2023-04-25T00:43:46.686Z,17.33
2023-04-25T00:46:32.387Z,18.83
2023-04-25T00:49:17.959Z,16.23
2023-04-25T00:52:03.324Z,17.38
2023-04-25T00:54:48.739Z,20.50
2023-04-25T00:57:34.147Z,24.33
2023-04-25T01:00:20.525Z,23.20
2023-04-25T01:03:06.083Z,24.80
2023-04-25T01:05:51.843Z,23.33
2023-04-25T01:08:39.271Z,14.63
2023-04-25T01:11:24.537Z,26.75
2023-04-25T01:14:09.825Z,23.10
2023-04-25T01:16:55.583Z,22.98
2023-04-25T01:19:41.219Z,19.77
2023-04-25T01:22:26.785Z,16.90
2023-04-25T01:25:11.936Z,13.63
2023-04-25T01:27:57.951Z,18.10
2023-04-25T01:30:43.661Z,26.67
2023-04-25T01:33:28.827Z,19.80
2023-04-25T01:36:15.582Z,18.60
2023-04-25T01:39:01.702Z,24.40
2023-04-25T01:41:48.215Z,15.60
2023-04-25T01:44:33.512Z,18.95
2023-04-25T01:47:18.532Z,21.10
2023-04-25T01:50:05.115Z,18.92
2023-04-25T01:52:50.659Z,21.63
2023-04-25T01:55:35.725Z,19.38
2023-04-25T01:58:21.272Z,20.50
2023-04-25T02:01:06.133Z,20.23
2023-04-25T02:03:51.794Z,17.45
2023-04-25T02:06:37.247Z,20.83
2023-04-25T02:09:22.491Z,16.60
2023-04-25T02:12:10.735Z,17.83
2023-04-25T02:14:58.685Z,21.00
2023-04-25T02:17:43.903Z,12.57
2023-04-25T02:20:30.971Z,15.88
2023-04-25T02:23:20.164Z,18.38
2023-04-25T02:26:05.835Z,16.02
2023-04-25T02:28:52.383Z,23.90
2023-04-25T02:31:37.460Z,24.13
2023-04-25T02:34:22.850Z,22.77
2023-04-25T02:37:07.827Z,10.35
2023-04-25T02:39:52.785Z,17.23
2023-04-25T02:42:38.017Z,17.50
2023-04-25T02:45:23.375Z,17.15
2023-04-25T02:48:09.151Z,20.80
2023-04-25T02:50:54.863Z,11.73
2023-04-25T02:53:40.140Z,18.08
2023-04-25T02:56:27.258Z,15.73
2023-04-25T02:59:12.915Z,18.73
2023-04-25T03:01:58.293Z,13.70
2023-04-25T03:04:43.955Z,15.25
2023-04-25T03:07:29.149Z,17.55
2023-04-25T03:10:14.271Z,19.05
2023-04-25T03:12:59.478Z,15.07
2023-04-25T03:15:50.731Z,9.60
2023-04-25T03:18:36.500Z,14.10
2023-04-25T03:21:21.727Z,15.15
2023-04-25T03:24:07.169Z,20.33
2023-04-25T03:26:52.330Z,16.92
2023-04-25T03:29:37.293Z,13.75
2023-04-25T03:32:22.442Z,12.38
2023-04-25T03:35:08.161Z,10.48
2023-04-25T03:37:53.506Z,16.23
2023-04-25T03:40:38.806Z,12.27
2023-04-25T03:43:23.821Z,21.73
2023-04-25T03:46:09.238Z,12.05
2023-04-25T03:48:54.556Z,14.23
2023-04-25T03:51:39.977Z,11.70
2023-04-25T03:54:25.092Z,17.95
2023-04-25T03:57:10.443Z,14.68
2023-04-25T03:59:56.052Z,16.23
2023-04-25T04:02:43.127Z,11.27
2023-04-25T04:05:30.202Z,20.52
2023-04-25T04:08:15.236Z,15.80
2023-04-25T04:11:00.340Z,12.20
2023-04-25T04:13:45.729Z,19.35
2023-04-25T04:16:32.521Z,11.85
2023-04-25T04:19:19.201Z,17.80
2023-04-25T04:22:04.399Z,10.70
2023-04-25T04:24:50.940Z,13.88
2023-04-25T04:27:36.538Z,10.23
2023-04-25T04:30:26.387Z,13.68
2023-04-25T04:33:12.310Z,20.17
2023-04-25T04:35:57.811Z,11.27
2023-04-25T04:38:43.359Z,12.10
2023-04-25T04:41:28.227Z,10.35
2023-04-25T04:44:13.473Z,14.52
2023-04-25T04:46:58.874Z,12.63
2023-04-25T04:49:44.147Z,15.48
2023-04-25T04:52:29.006Z,14.57
2023-04-25T04:55:14.037Z,16.42
2023-04-25T04:57:59.068Z,17.63
2023-04-25T05:00:44.369Z,13.88
2023-04-25T05:03:30.021Z,15.57
2023-04-25T05:06:15.190Z,12.30
2023-04-25T05:09:00.893Z,8.80
2023-04-25T05:11:46.015Z,12.43
2023-04-25T05:14:31.371Z,13.73
2023-04-25T05:17:16.678Z,17.88
2023-04-25T05:20:01.587Z,11.68
2023-04-25T05:22:46.901Z,18.52
2023-04-25T05:25:31.687Z,16.55
2023-04-25T05:28:16.778Z,18.42
2023-04-25T05:31:01.740Z,13.68
2023-04-25T05:33:46.750Z,11.32
2023-04-25T05:36:33.456Z,16.02
2023-04-25T05:39:18.536Z,16.10
2023-04-25T05:42:04.770Z,17.98
2023-04-25T05:44:50.018Z,16.10
2023-04-25T05:47:35.396Z,12.65
2023-04-25T05:50:20.551Z,20.33
2023-04-25T05:53:06.862Z,12.27
2023-04-25T05:55:52.064Z,12.57
2023-04-25T05:58:37.007Z,14.50
2023-04-25T06:01:23.432Z,18.98
2023-04-25T06:04:08.769Z,12.30
2023-04-25T06:06:53.893Z,12.77
2023-04-25T06:09:40.039Z,16.58
2023-04-25T06:12:25.412Z,18.10
2023-04-25T06:15:24.449Z,15.45
2023-04-25T06:18:13.090Z,18.42
2023-04-25T06:20:58.063Z,14.43
2023-04-25T06:23:43.034Z,13.50
2023-04-25T06:26:28.004Z,15.23
2023-04-25T06:29:13.339Z,14.95
2023-04-25T06:31:58.446Z,15.88
2023-04-25T06:34:43.699Z,9.75
2023-04-25T06:37:28.967Z,11.02
2023-04-25T06:40:14.064Z,15.73
2023-04-25T06:42:59.273Z,12.20
2023-04-25T06:45:46.349Z,11.07
2023-04-25T06:48:32.882Z,12.25
2023-04-25T06:51:17.855Z,14.18
2023-04-25T06:54:05.041Z,12.25
2023-04-25T06:56:50.820Z,19.25
2023-04-25T06:59:35.875Z,21.38
2023-04-25T07:02:22.655Z,11.73
2023-04-25T07:05:08.408Z,14.25
2023-04-25T07:07:53.764Z,15.38
2023-04-25T07:10:39.160Z,12.13
2023-04-25T07:13:24.649Z,13.55
2023-04-25T07:16:09.993Z,10.30
2023-04-25T07:18:55.393Z,12.73
2023-04-25T07:21:40.599Z,13.77
2023-04-25T07:24:25.624Z,11.02
2023-04-25T07:27:10.854Z,12.40
2023-04-25T07:29:56.394Z,12.73
2023-04-25T07:32:41.763Z,8.90
2023-04-25T07:35:27.016Z,15.55
2023-04-25T07:38:12.327Z,13.77
2023-04-25T07:40:57.574Z,13.30
2023-04-25T07:43:42.942Z,13.48
2023-04-25T07:46:28.076Z,12.25
2023-04-25T07:49:13.497Z,7.53
2023-04-25T07:51:58.523Z,12.05
2023-04-25T07:54:43.487Z,12.10
2023-04-25T07:57:30.142Z,18.33
2023-04-25T08:00:16.116Z,10.90
2023-04-25T08:03:01.388Z,10.40
2023-04-25T08:05:47.145Z,12.85
2023-04-25T08:08:32.080Z,14.38
2023-04-25T08:11:17.236Z,9.98
2023-04-25T08:14:02.746Z,13.15
2023-04-25T08:16:47.711Z,8.18
2023-04-25T08:19:32.898Z,22.18
2023-04-25T08:22:17.823Z,14.43
2023-04-25T08:25:04.728Z,13.25
2023-04-25T08:27:49.645Z,11.63
2023-04-25T08:30:35.106Z,8.23
2023-04-25T08:33:20.814Z,9.27
2023-04-25T08:36:05.773Z,12.02
2023-04-25T08:38:52.035Z,9.52
2023-04-25T08:41:39.539Z,9.32
2023-04-25T08:44:25.623Z,8.13
2023-04-25T08:47:10.845Z,10.40
2023-04-25T08:49:56.932Z,10.15
2023-04-25T08:52:46.785Z,9.43
2023-04-25T08:55:32.693Z,7.05
2023-04-25T08:58:19.645Z,6.22
2023-04-25T09:01:04.889Z,9.48
2023-04-25T09:03:50.425Z,10.13
2023-04-25T09:06:35.852Z,7.03
2023-04-25T09:09:21.638Z,11.20
2023-04-25T09:12:06.715Z,8.57
2023-04-25T09:15:05.483Z,8.20
2023-04-25T09:17:57.261Z,11.68
2023-04-25T09:20:56.514Z,13.27
2023-04-25T09:23:48.334Z,8.25
2023-04-25T09:26:33.733Z,7.45
2023-04-25T09:29:19.046Z,9.88
2023-04-25T09:32:16.554Z,11.93
2023-04-25T09:35:01.925Z,15.75
2023-04-25T09:37:46.911Z,12.07
2023-04-25T09:40:32.224Z,5.55
2023-04-25T09:43:22.005Z,9.98
2023-04-25T09:46:12.290Z,7.22
2023-04-25T09:48:57.639Z,15.98
2023-04-25T09:51:42.637Z,8.05
2023-04-25T09:54:27.738Z,13.88
2023-04-25T09:57:25.073Z,4.75
2023-04-25T10:00:13.669Z,8.25
2023-04-25T10:03:02.313Z,5.82
2023-04-25T10:05:50.268Z,7.57
2023-04-25T10:08:39.322Z,6.03
2023-04-25T10:11:27.121Z,9.20
2023-04-25T10:14:13.995Z,10.55
2023-04-25T10:16:59.951Z,7.85
2023-04-25T10:19:44.877Z,7.38
2023-04-25T10:22:43.588Z,13.88
2023-04-25T10:25:28.892Z,8.30
2023-04-25T10:28:14.072Z,10.32
2023-04-25T10:31:05.222Z,6.28
2023-04-25T10:33:50.735Z,6.97
2023-04-25T10:36:38.319Z,8.60
2023-04-25T10:39:27.950Z,8.25
2023-04-25T10:42:13.166Z,9.85
2023-04-25T10:45:08.495Z,7.85
2023-04-25T10:47:53.589Z,6.60
2023-04-25T10:50:40.807Z,6.90
2023-04-25T10:53:26.215Z,9.77
2023-04-25T10:56:24.516Z,5.88
2023-04-25T10:59:11.978Z,8.52
2023-04-25T11:01:57.205Z,7.80
2023-04-25T11:04:42.706Z,6.65
2023-04-25T11:08:07.930Z,8.88
2023-04-25T11:10:53.593Z,6.57
2023-04-25T11:13:38.733Z,4.70
2023-04-25T11:16:28.378Z,7.10
2023-04-25T11:19:14.022Z,5.05
2023-04-25T11:22:00.915Z,6.80
2023-04-25T11:24:46.636Z,9.15
2023-04-25T11:27:31.899Z,8.35
2023-04-25T11:30:18.186Z,6.45
2023-04-25T11:33:04.388Z,5.47
2023-04-25T11:35:49.535Z,6.72
2023-04-25T11:38:35.394Z,6.40
2023-04-25T11:41:21.260Z,6.05
2023-04-25T11:44:06.768Z,5.15
2023-04-25T11:46:51.799Z,4.65
2023-04-25T11:49:37.032Z,5.32
2023-04-25T11:52:21.939Z,4.18
2023-04-25T11:55:09.911Z,5.45
2023-04-25T11:57:56.262Z,6.45
2023-04-25T12:00:50.157Z,4.70
2023-04-25T12:03:47.295Z,4.82
2023-04-25T12:06:32.835Z,5.13
2023-04-25T12:09:31.882Z,4.53
2023-04-25T12:12:17.405Z,9.57
2023-04-25T12:15:19.883Z,5.95
2023-04-25T12:18:05.285Z,7.63
2023-04-25T12:20:50.725Z,4.85
2023-04-25T12:23:39.820Z,3.55
2023-04-25T12:26:26.432Z,5.13
2023-04-25T12:29:22.321Z,5.28
2023-04-25T12:32:07.575Z,3.97
2023-04-25T12:34:52.962Z,7.50
2023-04-25T12:37:37.998Z,7.03
2023-04-25T12:40:22.986Z,7.10
2023-04-25T12:43:08.129Z,9.68
2023-04-25T12:45:55.117Z,4.90
2023-04-25T12:48:40.294Z,4.78
2023-04-25T12:51:26.041Z,3.25
2023-04-25T12:54:11.580Z,4.85
2023-04-25T12:56:57.276Z,4.00
2023-04-25T12:59:42.533Z,7.13
2023-04-25T13:02:27.595Z,8.23
2023-04-25T13:05:13.621Z,3.42
2023-04-25T13:07:58.864Z,5.38
2023-04-25T13:10:43.808Z,11.82
2023-04-25T13:13:29.521Z,7.60
2023-04-25T13:16:15.143Z,7.63
2023-04-25T13:19:00.845Z,6.22
2023-04-25T13:21:45.979Z,8.13
2023-04-25T13:24:30.934Z,6.47
2023-04-25T13:27:16.096Z,3.67
2023-04-25T13:30:05.605Z,8.70
2023-04-25T13:32:51.011Z,10.93
2023-04-25T13:35:37.982Z,5.15
2023-04-25T13:38:24.628Z,7.97
2023-04-25T13:41:11.430Z,7.10
2023-04-25T13:43:56.946Z,6.05
2023-04-25T13:46:47.105Z,8.20
2023-04-25T13:49:33.052Z,5.68
2023-04-25T13:52:17.852Z,4.47
2023-04-25T13:55:04.795Z,5.32
2023-04-25T13:57:50.358Z,4.32
2023-04-25T14:00:40.444Z,5.70
2023-04-25T14:03:26.892Z,3.67
2023-04-25T14:06:13.488Z,5.28
2023-04-25T14:08:58.798Z,4.97
2023-04-25T14:11:44.021Z,5.07
2023-04-25T14:14:29.200Z,6.38
2023-04-25T14:17:14.412Z,5.88
2023-04-25T14:19:59.493Z,5.25
2023-04-25T14:22:44.721Z,6.78
2023-04-25T14:25:31.257Z,6.05
2023-04-25T14:28:16.619Z,7.68
2023-04-25T14:31:01.834Z,8.75
2023-04-25T14:33:47.030Z,5.13
2023-04-25T14:36:33.172Z,3.83
2023-04-25T14:39:19.269Z,4.10
2023-04-25T14:42:04.795Z,6.45
2023-04-25T14:44:49.874Z,6.25
2023-04-25T14:47:38.476Z,4.00
2023-04-25T14:50:23.716Z,3.25
2023-04-25T14:53:08.963Z,3.67
2023-04-25T14:55:54.682Z,4.20
2023-04-25T14:58:41.364Z,4.38
2023-04-25T15:01:27.016Z,6.10
2023-04-25T15:04:13.539Z,7.07
2023-04-25T15:06:58.859Z,4.25
2023-04-25T15:09:45.052Z,6.15
2023-04-25T15:12:30.191Z,5.43
2023-04-25T15:15:22.791Z,4.03
2023-04-25T15:18:12.112Z,4.47
2023-04-25T15:20:57.460Z,5.15
2023-04-25T15:23:42.626Z,8.18
2023-04-25T15:26:28.428Z,5.07
2023-04-25T15:29:13.346Z,5.65
2023-04-25T15:31:58.514Z,5.13
2023-04-25T15:34:43.911Z,6.32
2023-04-25T15:37:28.890Z,6.63
2023-04-25T15:40:17.576Z,6.07
2023-04-25T15:43:03.319Z,6.50
2023-04-25T15:45:48.224Z,5.78
2023-04-25T15:48:33.509Z,5.90
2023-04-25T15:51:18.384Z,7.30
2023-04-25T15:54:04.090Z,9.15
2023-04-25T15:56:49.323Z,9.32
2023-04-25T15:59:34.205Z,8.15
2023-04-25T16:02:19.547Z,6.30
2023-04-25T16:05:05.196Z,7.00
2023-04-25T16:07:53.449Z,4.57
2023-04-25T16:10:38.594Z,12.00
2023-04-25T16:13:23.784Z,6.30
2023-04-25T16:16:09.114Z,7.57
2023-04-25T16:18:54.265Z,6.75
2023-04-25T16:21:39.223Z,7.45
2023-04-25T16:24:24.114Z,8.77
2023-04-25T16:27:09.356Z,4.43
2023-04-25T16:29:54.530Z,7.97
2023-04-25T16:32:41.385Z,6.00
2023-04-25T16:35:30.497Z,7.97
2023-04-25T16:38:16.607Z,11.25
2023-04-25T16:41:01.861Z,7.68
2023-04-25T16:43:47.118Z,8.45
2023-04-25T16:46:32.304Z,3.60
2023-04-25T16:49:17.637Z,6.03
2023-04-25T16:52:03.510Z,4.88
2023-04-25T16:54:48.738Z,5.70
2023-04-25T16:57:37.616Z,4.70
2023-04-25T17:00:23.109Z,5.75
2023-04-25T17:03:08.669Z,7.32
2023-04-25T17:05:57.917Z,5.35
2023-04-25T17:08:43.048Z,4.93
2023-04-25T17:11:28.080Z,4.65
2023-04-25T17:14:13.449Z,3.05
2023-04-25T17:16:58.752Z,5.10
2023-04-25T17:19:44.389Z,5.95
2023-04-25T17:22:29.403Z,9.32
2023-04-25T17:25:14.364Z,6.43
2023-04-25T17:27:59.201Z,5.70
2023-04-25T17:30:44.463Z,4.03
2023-04-25T17:33:29.473Z,6.53
2023-04-25T17:36:15.028Z,5.45
2023-04-25T17:39:00.023Z,3.92
2023-04-25T17:41:45.174Z,4.93
2023-04-25T17:44:30.530Z,3.58
2023-04-25T17:47:17.348Z,5.57
2023-04-25T17:50:02.505Z,7.88
2023-04-25T17:52:48.426Z,5.70
2023-04-25T17:55:33.962Z,6.05
2023-04-25T17:58:19.047Z,6.97
2023-04-25T18:01:05.486Z,6.18
2023-04-25T18:03:51.654Z,7.20
2023-04-25T18:06:36.883Z,8.00
2023-04-25T18:09:23.427Z,5.70
2023-04-25T18:12:09.110Z,4.20
2023-04-25T18:14:54.261Z,2.83
2023-04-25T18:17:42.450Z,4.57
2023-04-25T18:20:28.640Z,9.43
2023-04-25T18:23:13.713Z,4.80
2023-04-25T18:25:58.825Z,9.57
2023-04-25T18:28:44.069Z,5.93
2023-04-25T18:31:31.895Z,6.10
2023-04-25T18:34:19.111Z,5.93
2023-04-25T18:37:04.353Z,5.20
2023-04-25T18:39:49.691Z,7.55
2023-04-25T18:42:34.617Z,9.40
2023-04-25T18:45:19.843Z,7.15
2023-04-25T18:48:05.189Z,10.60
2023-04-25T18:50:51.344Z,7.15
2023-04-25T18:53:37.412Z,7.50
2023-04-25T18:56:25.473Z,4.88
2023-04-25T18:59:11.140Z,9.45
2023-04-25T19:01:56.466Z,8.05
2023-04-25T19:04:42.721Z,8.75
2023-04-25T19:07:28.294Z,8.40
2023-04-25T19:10:13.119Z,4.30
2023-04-25T19:12:58.233Z,12.60
2023-04-25T19:15:43.572Z,8.68
2023-04-25T19:18:28.556Z,7.53
2023-04-25T19:21:14.656Z,10.13
2023-04-25T19:24:01.313Z,6.47
2023-04-25T19:26:46.551Z,12.75
2023-04-25T19:29:33.155Z,9.43
2023-04-25T19:32:18.139Z,19.30
2023-04-25T19:35:07.446Z,11.43
2023-04-25T19:37:54.003Z,15.85
2023-04-25T19:40:39.035Z,11.88
2023-04-25T19:43:24.116Z,13.93
2023-04-25T19:46:09.592Z,14.82
2023-04-25T19:48:55.380Z,10.68
2023-04-25T19:51:40.649Z,12.82
2023-04-25T19:54:25.885Z,14.70
2023-04-25T19:57:12.107Z,12.57
2023-04-25T19:59:57.261Z,9.15
2023-04-25T20:02:45.312Z,11.15
2023-04-25T20:05:32.216Z,9.63
2023-04-25T20:08:17.430Z,11.68
2023-04-25T20:11:02.874Z,8.18
2023-04-25T20:13:48.283Z,6.50
2023-04-25T20:16:33.458Z,12.93
2023-04-25T20:19:19.145Z,9.82
2023-04-25T20:22:04.636Z,12.48
2023-04-25T20:24:50.126Z,10.98
2023-04-25T20:27:37.769Z,11.60
2023-04-25T20:30:22.900Z,12.35
2023-04-25T20:33:09.312Z,12.00
2023-04-25T20:35:54.784Z,8.43
2023-04-25T20:38:40.095Z,7.55
2023-04-25T20:41:25.724Z,14.88
2023-04-25T20:44:12.330Z,10.45
2023-04-25T20:46:57.824Z,8.95
2023-04-25T20:49:42.953Z,8.25
2023-04-25T20:52:28.119Z,11.23
2023-04-25T20:55:13.447Z,10.15
2023-04-25T20:57:58.906Z,8.65
2023-04-25T21:00:47.371Z,8.02
2023-04-25T21:03:33.673Z,5.82
2023-04-25T21:06:19.497Z,9.48
2023-04-25T21:09:04.942Z,9.90
2023-04-25T21:11:51.080Z,12.30
2023-04-25T21:14:36.380Z,7.88
2023-04-25T21:17:21.616Z,10.80
2023-04-25T21:20:10.234Z,8.82
2023-04-25T21:22:55.339Z,15.27
2023-04-25T21:25:42.137Z,9.35
2023-04-25T21:28:27.302Z,12.60
2023-04-25T21:31:12.731Z,18.48
2023-04-25T21:33:57.956Z,11.18
2023-04-25T21:36:44.216Z,10.95
2023-04-25T21:39:29.326Z,10.02
2023-04-25T21:42:14.346Z,12.00
2023-04-25T21:45:01.440Z,10.32
2023-04-25T21:47:47.677Z,4.50
2023-04-25T21:50:33.460Z,9.43
2023-04-25T21:53:18.965Z,11.50
2023-04-25T21:56:04.175Z,7.40
2023-04-25T21:58:49.968Z,12.85
2023-04-25T22:01:35.402Z,13.00
2023-04-25T22:04:21.077Z,12.43
2023-04-25T22:07:06.405Z,10.00
2023-04-25T22:09:55.356Z,8.07
2023-04-25T22:12:41.307Z,11.88
2023-04-25T22:15:27.041Z,7.20
2023-04-25T22:18:13.297Z,11.98
2023-04-25T22:20:58.377Z,10.50
2023-04-25T22:23:43.311Z,12.13
2023-04-25T22:26:30.159Z,9.02
2023-04-25T22:29:15.552Z,8.90
2023-04-25T22:32:00.496Z,9.90
2023-04-25T22:34:46.672Z,8.98
2023-04-25T22:37:32.051Z,8.25
2023-04-25T22:40:18.178Z,8.30
2023-04-25T22:43:03.185Z,12.85
2023-04-25T22:45:48.733Z,6.72
2023-04-25T22:48:33.773Z,9.20
2023-04-25T22:51:18.965Z,9.73
2023-04-25T22:54:05.373Z,10.30
2023-04-25T22:56:51.031Z,6.72
2023-04-25T22:59:38.729Z,9.75
2023-04-25T23:02:24.947Z,10.88
2023-04-25T23:05:10.064Z,8.43
2023-04-25T23:07:55.056Z,15.20
2023-04-25T23:10:40.430Z,11.73
2023-04-25T23:13:25.771Z,9.18
2023-04-25T23:16:11.215Z,11.27
2023-04-25T23:18:56.649Z,7.40
2023-04-25T23:21:44.323Z,12.50
2023-04-25T23:24:29.476Z,11.60
2023-04-25T23:27:14.254Z,12.25
2023-04-25T23:29:59.181Z,10.10
2023-04-25T23:32:44.605Z,7.07
2023-04-25T23:35:29.903Z,6.65
2023-04-25T23:38:16.438Z,11.90
2023-04-25T23:41:01.609Z,7.80
2023-04-25T23:43:46.617Z,8.50
2023-04-25T23:46:31.881Z,10.43
2023-04-25T23:49:17.023Z,10.35
2023-04-25T23:52:03.766Z,9.95
2023-04-25T23:54:48.765Z,12.05
2023-04-25T23:57:34.094Z,9.63
